Time;durP1;ratioP1;P1;durP2;ratioP2;P2;SDS_P1;SDS_P2;PMS_P1;PMS_P2;Temp;Humidity;BMP_temperature;BMP_pressure;BME280_temperature;BME280_humidity;BME280_pressure;Samples;Min_cycle;Max_cycle;Signal;HPM_P1;HPM_P2
2021/09/13 00:00:47;;;;;;;20.70;12.53;;;16.60;99.90;;;;;;5053331;28;20297;-80
2021/09/13 00:03:13;;;;;;;19.50;12.60;;;16.50;99.90;;;;;;5062414;28;20219;-80
2021/09/13 00:05:39;;;;;;;19.07;12.73;;;16.50;99.90;;;;;;5067123;28;20186;-79
2021/09/13 00:08:05;;;;;;;18.17;12.33;;;16.60;99.90;;;;;;5061441;28;20250;-79
2021/09/13 00:10:31;;;;;;;18.80;12.90;;;16.60;99.90;;;;;;5049975;28;20206;-79
2021/09/13 00:12:56;;;;;;;18.90;12.83;;;16.60;99.90;;;;;;5032464;28;20692;-79
2021/09/13 00:15:23;;;;;;;19.73;12.50;;;16.50;99.90;;;;;;5049977;28;20182;-79
2021/09/13 00:17:51;;;;;;;18.87;12.37;;;16.40;99.90;;;;;;5048958;28;20183;-79
2021/09/13 00:20:17;;;;;;;18.53;11.67;;;16.30;99.90;;;;;;5046445;28;20171;-79
2021/09/13 00:22:43;;;;;;;19.37;12.50;;;16.30;99.90;;;;;;5057633;28;20562;-80
2021/09/13 00:25:09;;;;;;;20.43;12.53;;;16.30;99.90;;;;;;5050129;28;20529;-79
2021/09/13 00:27:35;;;;;;;21.07;13.43;;;16.30;99.90;;;;;;5028024;28;20200;-80
2021/09/13 00:30:05;;;;;;;19.67;12.27;;;16.30;99.90;;;;;;5050615;28;20236;-79
2021/09/13 00:32:30;;;;;;;19.73;11.70;;;16.40;99.90;;;;;;5040705;28;20215;-79
2021/09/13 00:34:57;;;;;;;19.40;12.60;;;16.40;99.90;;;;;;5062002;28;20846;-80
2021/09/13 00:37:25;;;;;;;20.77;12.00;;;16.40;99.90;;;;;;5050825;28;20180;-80
2021/09/13 00:39:51;;;;;;;18.43;11.57;;;16.50;99.90;;;;;;5032642;28;20323;-80
2021/09/13 00:42:17;;;;;;;17.90;11.57;;;16.60;99.90;;;;;;5047253;28;20658;-80
2021/09/13 00:44:43;;;;;;;21.33;11.00;;;16.60;99.90;;;;;;5046656;28;20179;-80
2021/09/13 00:47:09;;;;;;;15.93;10.93;;;16.60;99.90;;;;;;5050751;28;20189;-80
2021/09/13 00:49:35;;;;;;;17.53;10.43;;;16.50;99.90;;;;;;5050751;28;20232;-80
2021/09/13 00:52:01;;;;;;;17.73;11.00;;;16.40;99.90;;;;;;5048292;28;20191;-80
2021/09/13 00:54:27;;;;;;;18.03;11.17;;;16.30;99.90;;;;;;5062878;28;20715;-80
2021/09/13 00:56:54;;;;;;;18.80;11.43;;;16.40;99.90;;;;;;5050774;28;20203;-80
2021/09/13 00:59:20;;;;;;;16.47;10.80;;;16.50;99.90;;;;;;5033872;28;20187;-80
2021/09/13 01:01:46;;;;;;;18.07;10.50;;;16.50;99.90;;;;;;5067650;28;20248;-80
2021/09/13 01:04:12;;;;;;;18.20;10.80;;;16.50;99.90;;;;;;5040757;28;20325;-80
2021/09/13 01:06:38;;;;;;;13.70;9.80;;;16.50;99.90;;;;;;5048558;28;20187;-80
2021/09/13 01:09:04;;;;;;;15.47;10.03;;;16.50;99.90;;;;;;5034631;28;20679;-79
2021/09/13 01:11:30;;;;;;;14.00;9.30;;;16.60;99.90;;;;;;5052850;28;20717;-80
2021/09/13 01:13:56;;;;;;;16.07;9.23;;;16.60;99.90;;;;;;5055440;28;20276;-80
2021/09/13 01:16:22;;;;;;;14.80;8.63;;;16.70;99.90;;;;;;5028268;28;20271;-80
2021/09/13 01:18:48;;;;;;;12.63;8.67;;;16.70;99.90;;;;;;5038187;28;20283;-80
2021/09/13 01:21:14;;;;;;;13.33;8.83;;;16.80;99.90;;;;;;5039038;28;20254;-80
2021/09/13 01:23:42;;;;;;;13.80;8.53;;;16.80;99.90;;;;;;5035106;28;20183;-80
2021/09/13 01:26:13;;;;;;;13.87;8.63;;;16.80;99.90;;;;;;5033434;28;20195;-80
2021/09/13 01:28:39;;;;;;;12.20;8.40;;;16.80;99.90;;;;;;5059242;28;20558;-80
2021/09/13 01:31:08;;;;;;;12.80;8.13;;;16.80;99.90;;;;;;5038314;28;20229;-80
2021/09/13 01:33:39;;;;;;;17.50;8.63;;;16.70;99.90;;;;;;5053920;28;20222;-80
2021/09/13 01:36:07;;;;;;;14.43;8.17;;;16.70;99.90;;;;;;5049950;28;20211;-80
2021/09/13 01:38:33;;;;;;;14.83;8.70;;;16.70;99.90;;;;;;5029281;28;20219;-80
2021/09/13 01:41:01;;;;;;;12.73;8.50;;;16.70;99.90;;;;;;5048482;28;20191;-80
2021/09/13 01:43:27;;;;;;;15.23;8.37;;;16.70;99.90;;;;;;5055246;28;20584;-80
2021/09/13 01:45:53;;;;;;;15.50;8.40;;;16.80;99.90;;;;;;5036616;28;20190;-80
2021/09/13 01:48:18;;;;;;;12.20;7.33;;;16.80;99.90;;;;;;5051381;28;20200;-80
2021/09/13 01:50:48;;;;;;;15.00;7.30;;;16.80;99.90;;;;;;5047256;28;20183;-80
2021/09/13 01:53:16;;;;;;;11.57;7.17;;;16.80;99.90;;;;;;5049782;28;20171;-80
2021/09/13 01:55:42;;;;;;;13.97;7.87;;;16.70;99.90;;;;;;5036637;28;20174;-78
2021/09/13 01:58:10;;;;;;;14.77;7.33;;;16.70;99.90;;;;;;5049667;28;20183;-79
2021/09/13 02:00:35;;;;;;;14.07;7.70;;;16.70;99.90;;;;;;5051402;28;20178;-79
2021/09/13 02:03:02;;;;;;;11.90;6.97;;;16.70;99.90;;;;;;5030520;28;20176;-78
2021/09/13 02:05:38;;;;;;;12.40;7.00;;;16.60;99.90;;;;;;5051138;28;20228;-79
2021/09/13 02:08:04;;;;;;;11.93;7.20;;;16.60;99.90;;;;;;5053342;28;20231;-79
2021/09/13 02:10:30;;;;;;;11.47;7.13;;;16.50;99.90;;;;;;5049292;28;20551;-79
2021/09/13 02:12:56;;;;;;;18.73;7.97;;;16.40;99.90;;;;;;5036673;28;20175;-79
2021/09/13 02:15:27;;;;;;;16.83;7.83;;;16.30;99.90;;;;;;5034020;28;20179;-79
2021/09/13 02:17:53;;;;;;;13.73;7.60;;;16.30;99.90;;;;;;5068635;28;20214;-78
2021/09/13 02:20:19;;;;;;;13.83;8.17;;;16.20;99.90;;;;;;5066986;28;20230;-79
2021/09/13 02:22:44;;;;;;;11.77;7.77;;;16.10;99.90;;;;;;5031159;28;20195;-78
2021/09/13 02:25:10;;;;;;;13.03;8.13;;;16.10;99.90;;;;;;5052008;28;20252;-79
2021/09/13 02:27:36;;;;;;;14.13;8.43;;;16.10;99.90;;;;;;5031997;28;20591;-79
2021/09/13 02:30:03;;;;;;;15.37;8.77;;;16.00;99.90;;;;;;5051385;28;20202;-79
2021/09/13 02:32:30;;;;;;;14.93;7.90;;;15.90;99.90;;;;;;5036232;28;20247;-79
2021/09/13 02:34:56;;;;;;;13.73;7.73;;;15.80;99.90;;;;;;5048367;28;20208;-79
2021/09/13 02:37:22;;;;;;;14.60;8.47;;;15.80;99.90;;;;;;5048451;28;20179;-79
2021/09/13 02:39:50;;;;;;;15.00;8.93;;;15.80;99.90;;;;;;5044388;28;20199;-79
2021/09/13 02:42:16;;;;;;;12.60;8.53;;;15.80;99.90;;;;;;5050734;28;20195;-79
2021/09/13 02:44:41;;;;;;;14.97;8.50;;;15.80;99.90;;;;;;5031199;28;20183;-79
2021/09/13 02:47:07;;;;;;;15.50;8.10;;;15.80;99.90;;;;;;5045635;28;20194;-80
2021/09/13 02:49:33;;;;;;;15.73;8.60;;;15.80;99.90;;;;;;5035814;28;20581;-79
2021/09/13 02:52:00;;;;;;;16.70;7.93;;;15.80;99.90;;;;;;5030762;28;20178;-79
2021/09/13 02:54:27;;;;;;;15.57;8.50;;;15.70;99.90;;;;;;5033644;28;20196;-79
2021/09/13 02:56:53;;;;;;;12.97;7.57;;;15.70;99.90;;;;;;5048528;28;20251;-79
2021/09/13 02:59:19;;;;;;;15.40;9.17;;;15.60;99.90;;;;;;5046284;28;20179;-79
2021/09/13 03:01:45;;;;;;;16.83;9.47;;;15.70;99.90;;;;;;5048896;28;20185;-80
2021/09/13 03:04:11;;;;;;;15.23;8.73;;;15.70;99.90;;;;;;5045356;28;20690;-80
2021/09/13 03:06:37;;;;;;;15.50;8.70;;;15.70;99.90;;;;;;5048502;28;20191;-80
2021/09/13 03:09:04;;;;;;;12.60;8.63;;;15.70;99.90;;;;;;5030490;28;20213;-80
2021/09/13 03:11:34;;;;;;;14.50;8.67;;;15.70;99.90;;;;;;5046230;28;20274;-80
2021/09/13 03:14:00;;;;;;;15.17;8.77;;;15.70;99.90;;;;;;5051355;28;21288;-80
2021/09/13 03:16:27;;;;;;;14.20;9.00;;;15.70;99.90;;;;;;5050840;28;20186;-80
2021/09/13 03:18:55;;;;;;;14.03;9.00;;;15.70;99.90;;;;;;5051092;28;20191;-80
2021/09/13 03:21:21;;;;;;;14.90;8.17;;;15.80;99.90;;;;;;5050487;28;20181;-80
2021/09/13 03:23:46;;;;;;;17.60;8.40;;;15.70;99.90;;;;;;5033676;28;20173;-79
2021/09/13 03:26:12;;;;;;;13.40;7.80;;;15.60;99.90;;;;;;5033477;28;20182;-79
2021/09/13 03:28:39;;;;;;;15.23;8.77;;;15.50;99.90;;;;;;5045073;28;20226;-79
2021/09/13 03:31:05;;;;;;;16.93;9.27;;;15.40;99.90;;;;;;5034261;28;20245;-79
2021/09/13 03:33:33;;;;;;;17.70;8.17;;;15.50;99.90;;;;;;5034672;28;20527;-78
2021/09/13 03:36:00;;;;;;;14.83;8.93;;;15.40;99.90;;;;;;5048097;28;20187;-78
2021/09/13 03:38:26;;;;;;;16.47;9.10;;;15.40;99.90;;;;;;5030907;28;20638;-79
2021/09/13 03:40:52;;;;;;;16.23;8.83;;;15.50;99.90;;;;;;5049071;28;20697;-78
2021/09/13 03:43:20;;;;;;;16.37;9.33;;;15.40;99.90;;;;;;5032220;28;20217;-78
2021/09/13 03:45:46;;;;;;;16.57;8.80;;;15.40;99.90;;;;;;5044024;28;20206;-78
2021/09/13 03:48:32;;;;;;;15.70;8.03;;;15.50;99.90;;;;;;5048184;28;20278;-79
2021/09/13 03:50:57;;;;;;;14.57;8.00;;;15.50;99.90;;;;;;5028160;28;20655;-79
2021/09/13 03:53:23;;;;;;;14.43;7.33;;;15.40;99.90;;;;;;5033652;28;20182;-80
2021/09/13 03:55:50;;;;;;;14.30;7.57;;;15.40;99.90;;;;;;5031435;28;20176;-79
2021/09/13 03:58:16;;;;;;;14.67;7.37;;;15.30;99.90;;;;;;5063029;28;20194;-79
2021/09/13 04:00:42;;;;;;;13.27;7.77;;;15.30;99.90;;;;;;5050012;28;20256;-79
2021/09/13 04:03:17;;;;;;;12.27;7.03;;;15.20;99.90;;;;;;5051872;28;20242;-79
2021/09/13 04:05:46;;;;;;;11.57;7.27;;;15.20;99.90;;;;;;5032396;28;20222;-79
2021/09/13 04:14:33;;;;;;;15.50;9.60;;;15.00;99.90;;;;;;5047594;28;20268;-78
2021/09/13 04:17:17;;;;;;;18.30;9.97;;;15.10;99.90;;;;;;5049880;28;20196;-78
2021/09/13 04:20:12;;;;;;;17.53;10.00;;;15.20;99.90;;;;;;5039836;28;20190;-78
2021/09/13 04:22:51;;;;;;;13.93;9.50;;;15.30;99.90;;;;;;5049215;28;20245;-78
2021/09/13 04:25:32;;;;;;;14.43;8.50;;;15.30;99.90;;;;;;5033307;28;20177;-78
2021/09/13 04:28:20;;;;;;;16.83;8.63;;;15.20;99.90;;;;;;5051075;28;20225;-78
2021/09/13 04:30:52;;;;;;;19.80;10.00;;;15.20;99.90;;;;;;5049402;28;20197;-78
2021/09/13 04:33:38;;;;;;;15.10;7.80;;;15.20;99.90;;;;;;5057430;28;20267;-78
2021/09/13 04:36:22;;;;;;;13.77;7.90;;;15.30;99.90;;;;;;5050924;28;20308;-78
2021/09/13 04:39:06;;;;;;;21.33;9.47;;;15.10;99.90;;;;;;5046895;28;20279;-77
2021/09/13 04:41:50;;;;;;;16.47;8.03;;;14.90;99.90;;;;;;5052770;28;21743;-78
2021/09/13 04:44:38;;;;;;;14.83;7.37;;;14.90;99.90;;;;;;5053612;28;20184;-79
2021/09/13 04:47:22;;;;;;;13.47;6.70;;;14.80;99.90;;;;;;5054208;28;20653;-79
2021/09/13 04:50:09;;;;;;;11.77;6.20;;;14.80;99.90;;;;;;5054005;28;21747;-79
2021/09/13 04:52:55;;;;;;;10.87;6.77;;;14.70;99.90;;;;;;5064371;28;20211;-78
2021/09/13 04:55:21;;;;;;;14.53;9.13;;;14.60;99.90;;;;;;5055434;28;20279;-79
2021/09/13 04:57:47;;;;;;;14.93;7.63;;;14.70;99.90;;;;;;5041590;28;20273;-79
2021/09/13 05:00:15;;;;;;;14.40;7.33;;;14.70;99.90;;;;;;5055453;28;20184;-80
2021/09/13 05:02:42;;;;;;;13.23;7.57;;;14.70;99.90;;;;;;5059784;28;20207;-79
2021/09/13 05:05:08;;;;;;;12.87;7.03;;;14.70;99.90;;;;;;5050362;28;20675;-79
2021/09/13 05:07:34;;;;;;;17.73;8.43;;;14.70;99.90;;;;;;5047985;28;20303;-78
2021/09/13 05:10:05;;;;;;;15.40;8.53;;;14.70;99.90;;;;;;5048738;28;20220;-79
2021/09/13 05:12:31;;;;;;;16.97;10.07;;;14.80;99.90;;;;;;5054407;28;20187;-78
2021/09/13 05:14:58;;;;;;;14.50;9.27;;;14.80;99.90;;;;;;5043710;28;20179;-79
2021/09/13 05:17:24;;;;;;;15.87;9.27;;;14.80;99.90;;;;;;5037024;28;20180;-79
2021/09/13 05:19:50;;;;;;;17.87;10.20;;;14.80;99.90;;;;;;5051817;28;20183;-78
2021/09/13 05:22:16;;;;;;;15.97;10.20;;;14.80;99.90;;;;;;5049774;28;20683;-79
2021/09/13 05:24:42;;;;;;;19.00;10.63;;;14.90;99.90;;;;;;5051489;28;20196;-79
2021/09/13 05:27:10;;;;;;;17.37;10.67;;;15.00;99.90;;;;;;5032036;28;20612;-79
2021/09/13 05:29:36;;;;;;;21.10;10.80;;;15.10;99.90;;;;;;5037111;28;20216;-79
2021/09/13 05:32:03;;;;;;;16.47;10.03;;;15.20;99.90;;;;;;5051868;28;20648;-79
2021/09/13 05:34:29;;;;;;;17.37;10.77;;;15.30;99.90;;;;;;5045839;28;20203;-79
2021/09/13 05:36:56;;;;;;;15.67;10.63;;;15.30;99.90;;;;;;5044655;28;20180;-79
2021/09/13 05:39:21;;;;;;;19.17;9.67;;;15.40;99.90;;;;;;5050715;28;20184;-79
2021/09/13 05:41:51;;;;;;;19.07;9.17;;;15.40;99.90;;;;;;5045798;28;20185;-79
2021/09/13 05:44:21;;;;;;;19.43;10.77;;;15.40;99.90;;;;;;5051716;28;20199;-79
2021/09/13 05:46:48;;;;;;;17.37;9.63;;;15.40;99.90;;;;;;5052655;28;20623;-77
2021/09/13 05:49:14;;;;;;;15.20;8.30;;;15.50;99.90;;;;;;5051204;28;20238;-77
2021/09/13 05:51:51;;;;;;;13.73;8.57;;;15.60;99.90;;;;;;5049780;28;20185;-76
2021/09/13 05:54:25;;;;;;;12.97;7.60;;;15.70;99.90;;;;;;5030819;28;20267;-77
2021/09/13 05:56:53;;;;;;;12.73;7.47;;;15.90;99.90;;;;;;5026454;28;20666;-76
2021/09/13 05:59:20;;;;;;;14.27;8.47;;;16.00;99.90;;;;;;5045423;28;20182;-77
2021/09/13 06:01:47;;;;;;;11.83;7.27;;;16.20;99.90;;;;;;5050366;28;20191;-76
2021/09/13 06:04:13;;;;;;;13.37;7.60;;;16.30;99.90;;;;;;5042172;28;20191;-76
2021/09/13 06:06:41;;;;;;;13.50;7.17;;;16.30;99.90;;;;;;5035262;28;20633;-76
2021/09/13 06:09:08;;;;;;;13.97;6.67;;;16.30;99.90;;;;;;5065280;28;20201;-76
2021/09/13 06:11:34;;;;;;;13.10;6.60;;;16.40;99.90;;;;;;5045727;28;20330;-77
2021/09/13 06:14:01;;;;;;;9.97;6.27;;;16.50;99.90;;;;;;5047740;28;20278;-77
2021/09/13 06:16:29;;;;;;;11.10;6.10;;;16.60;99.90;;;;;;5043692;28;20182;-77
2021/09/13 06:18:54;;;;;;;12.93;6.40;;;16.70;99.90;;;;;;5050258;28;20187;-77
2021/09/13 06:21:21;;;;;;;10.30;6.13;;;16.80;99.90;;;;;;5048250;28;20222;-77
2021/09/13 06:23:47;;;;;;;10.50;6.50;;;16.90;99.90;;;;;;5034012;28;20238;-77
2021/09/13 06:26:15;;;;;;;12.70;6.20;;;17.00;99.90;;;;;;5034247;28;20254;-77
2021/09/13 06:28:44;;;;;;;17.93;7.50;;;17.20;99.90;;;;;;5050283;28;20218;-77
2021/09/13 06:31:10;;;;;;;15.63;8.10;;;17.30;99.90;;;;;;5035125;28;20310;-77
2021/09/13 06:33:37;;;;;;;20.87;8.30;;;17.60;99.90;;;;;;5044471;28;20266;-77
2021/09/13 06:36:04;;;;;;;17.43;7.40;;;17.80;99.90;;;;;;5035639;28;20178;-77
2021/09/13 06:38:33;;;;;;;13.30;7.50;;;17.90;99.90;;;;;;5034626;28;20530;-77
2021/09/13 06:40:59;;;;;;;14.73;7.80;;;18.20;99.90;;;;;;5050121;28;20669;-77
2021/09/13 06:43:29;;;;;;;14.93;7.30;;;18.80;99.90;;;;;;5048106;28;20184;-77
2021/09/13 06:46:22;;;;;;;13.53;7.03;;;19.50;99.90;;;;;;5037087;28;20196;-77
2021/09/13 06:48:45;;;;;;;16.47;8.70;;;20.30;99.90;;;;;;5052974;28;20305;-77
2021/09/13 06:51:12;;;;;;;16.47;7.30;;;21.10;99.90;;;;;;5046641;28;20236;-78
2021/09/13 06:53:38;;;;;;;15.10;6.70;;;22.10;99.90;;;;;;5053713;28;20257;-77
2021/09/13 06:56:06;;;;;;;12.93;6.50;;;22.90;99.90;;;;;;5056362;28;20538;-77
2021/09/13 06:58:34;;;;;;;14.03;6.20;;;23.60;99.90;;;;;;5050462;28;21148;-78
2021/09/13 07:01:01;;;;;;;11.60;6.60;;;24.30;99.90;;;;;;5041921;28;20185;-77
2021/09/13 07:03:28;;;;;;;11.37;7.33;;;24.60;99.90;;;;;;5054217;28;20642;-77
2021/09/13 07:05:55;;;;;;;14.23;7.80;;;25.30;99.90;;;;;;5052850;28;20655;-77
2021/09/13 07:08:20;;;;;;;9.83;6.93;;;26.20;99.90;;;;;;5048993;28;20281;-78
2021/09/13 07:10:47;;;;;;;11.40;7.05;;;26.90;99.90;;;;;;5052706;28;20345;-77
2021/09/13 07:13:13;;;;;;;13.43;7.20;;;27.70;99.90;;;;;;5047215;28;20177;-78
2021/09/13 07:15:40;;;;;;;11.88;7.10;;;28.40;99.90;;;;;;5051975;28;20281;-77
2021/09/13 07:18:07;;;;;;;13.63;7.72;;;29.00;99.90;;;;;;5052741;28;20184;-78
2021/09/13 07:20:34;;;;;;;14.77;8.20;;;28.90;99.90;;;;;;5048069;28;20740;-78
2021/09/13 07:23:00;;;;;;;12.43;7.43;;;28.80;99.90;;;;;;5056973;28;20180;-78
2021/09/13 07:25:27;;;;;;;13.45;7.65;;;28.30;99.90;;;;;;5066026;28;20181;-78
2021/09/13 07:28:09;;;;;;;11.43;7.20;;;27.50;99.90;;;;;;5068248;28;20271;-78
2021/09/13 07:30:38;;;;;;;13.32;7.78;;;27.00;99.90;;;;;;5056275;28;20220;-77
2021/09/13 07:33:07;;;;;;;16.48;7.38;;;27.00;99.90;;;;;;5054670;28;20211;-78
2021/09/13 07:35:37;;;;;;;10.05;6.53;;;27.40;99.90;;;;;;5061407;28;20168;-78
2021/09/13 07:38:06;;;;;;;10.90;6.63;;;27.50;99.90;;;;;;5057627;28;20867;-77
2021/09/13 07:40:33;;;;;;;9.10;5.95;;;28.20;99.90;;;;;;5057785;28;20229;-78
2021/09/13 07:43:00;;;;;;;11.35;6.53;;;29.00;99.90;;;;;;5052450;28;20266;-78
2021/09/13 07:45:25;;;;;;;13.68;7.07;;;28.70;99.90;;;;;;5045401;28;20211;-78
2021/09/13 07:47:51;;;;;;;12.45;7.03;;;28.10;99.90;;;;;;5045814;28;20607;-78
2021/09/13 07:50:18;;;;;;;11.85;6.43;;;27.70;99.90;;;;;;5047857;28;20258;-78
2021/09/13 07:52:44;;;;;;;13.27;7.13;;;27.80;99.90;;;;;;5037879;28;20284;-77
2021/09/13 07:55:10;;;;;;;12.70;7.30;;;27.90;99.90;;;;;;5046755;28;20267;-78
2021/09/13 07:57:37;;;;;;;11.35;7.25;;;27.90;99.90;;;;;;5050634;28;20618;-77
2021/09/13 08:00:04;;;;;;;16.20;7.35;;;27.70;99.90;;;;;;5053758;28;20179;-77
2021/09/13 08:02:39;;;;;;;14.30;7.63;;;27.80;99.90;;;;;;5048877;28;20188;-78
2021/09/13 08:05:05;;;;;;;15.93;8.20;;;28.10;99.90;;;;;;5048536;28;20184;-78
2021/09/13 08:07:31;;;;;;;16.05;8.48;;;28.70;99.90;;;;;;5049210;28;20235;-77
2021/09/13 08:09:56;;;;;;;13.82;7.88;;;28.40;99.90;;;;;;5043697;28;20679;-78
2021/09/13 08:12:24;;;;;;;17.52;8.73;;;28.30;99.90;;;;;;5048469;28;20181;-78
2021/09/13 08:14:51;;;;;;;13.57;8.45;;;28.40;99.90;;;;;;5040658;28;20263;-77
2021/09/13 08:17:17;;;;;;;13.70;8.70;;;27.70;99.90;;;;;;5049404;28;20184;-78
2021/09/13 08:19:45;;;;;;;17.13;10.35;;;27.60;99.90;;;;;;5051232;28;20216;-77
2021/09/13 08:22:13;;;;;;;18.90;10.70;;;27.30;99.90;;;;;;5047693;28;20655;-77
2021/09/13 08:24:40;;;;;;;20.00;11.02;;;27.10;99.90;;;;;;5050691;28;20187;-78
2021/09/13 08:27:43;;;;;;;17.77;10.70;;;27.10;99.90;;;;;;5047508;28;20256;-77
2021/09/13 08:30:11;;;;;;;21.48;12.00;;;27.90;99.90;;;;;;5067819;28;20208;-77
2021/09/13 08:32:44;;;;;;;18.45;11.77;;;27.80;99.90;;;;;;5052549;28;20180;-77
2021/09/13 08:35:14;;;;;;;17.35;12.20;;;27.80;99.90;;;;;;5049781;28;20189;-77
2021/09/13 08:37:43;;;;;;;22.77;13.73;;;27.60;99.90;;;;;;5054250;28;20258;-77
2021/09/13 08:40:16;;;;;;;23.60;13.15;;;28.20;99.90;;;;;;5053548;28;20193;-77
2021/09/13 08:42:49;;;;;;;18.15;11.70;;;28.40;99.90;;;;;;5069349;28;20210;-77
2021/09/13 08:45:19;;;;;;;17.52;10.93;;;28.80;99.90;;;;;;5052267;28;20184;-77
2021/09/13 08:48:09;;;;;;;21.40;12.25;;;29.60;99.90;;;;;;5034658;28;20237;-77
2021/09/13 08:50:53;;;;;;;18.08;11.15;;;30.40;99.90;;;;;;5049488;28;20222;-78
2021/09/13 08:53:30;;;;;;;20.98;12.55;;;31.40;99.90;;;;;;5047890;28;20204;-77
2021/09/13 08:55:56;;;;;;;19.83;12.25;;;31.00;99.90;;;;;;5046249;28;20184;-77
2021/09/13 08:58:22;;;;;;;20.85;12.48;;;30.90;99.90;;;;;;5050395;28;20222;-78
2021/09/13 09:00:49;;;;;;;19.02;12.73;;;30.90;99.90;;;;;;5045790;28;20271;-77
2021/09/13 09:03:16;;;;;;;17.35;12.02;;;30.20;99.90;;;;;;5049597;28;20164;-77
2021/09/13 09:05:46;;;;;;;18.75;12.43;;;30.60;99.90;;;;;;5046577;28;20188;-78
2021/09/13 09:08:27;;;;;;;18.98;12.18;;;30.90;99.90;;;;;;5049686;28;20212;-78
2021/09/13 09:10:56;;;;;;;20.63;12.93;;;30.30;99.90;;;;;;5049181;28;20188;-77
2021/09/13 09:13:23;;;;;;;20.67;13.00;;;30.10;99.90;;;;;;5050240;28;20169;-77
2021/09/13 09:15:57;;;;;;;22.05;12.30;;;29.60;99.90;;;;;;5044306;28;20261;-78
2021/09/13 09:18:42;;;;;;;20.52;11.95;;;28.60;99.90;;;;;;5068128;28;20252;-77
2021/09/13 09:21:09;;;;;;;19.88;13.23;;;27.60;99.90;;;;;;5044212;28;20176;-77
2021/09/13 09:23:55;;;;;;;21.23;13.00;;;26.60;99.90;;;;;;5048372;28;20547;-77
2021/09/13 09:26:21;;;;;;;21.08;12.73;;;25.90;99.90;;;;;;5050920;28;20207;-77
2021/09/13 09:28:47;;;;;;;21.33;12.57;;;25.40;99.90;;;;;;5050408;28;20209;-78
2021/09/13 09:31:13;;;;;;;19.43;12.60;;;25.00;99.90;;;;;;5052070;28;20668;-77
2021/09/13 09:33:39;;;;;;;20.30;12.40;;;24.40;99.90;;;;;;5049986;28;20183;-77
2021/09/13 09:36:12;;;;;;;19.20;11.70;;;24.00;99.90;;;;;;5052785;28;20226;-77
2021/09/13 09:38:40;;;;;;;20.20;11.50;;;23.80;99.90;;;;;;5046306;28;20192;-77
2021/09/13 09:41:09;;;;;;;17.37;10.67;;;23.50;99.90;;;;;;5036537;28;20187;-77
2021/09/13 09:43:50;;;;;;;18.60;10.17;;;23.50;99.90;;;;;;5052316;28;20180;-77
2021/09/13 09:46:18;;;;;;;18.50;10.33;;;23.60;99.90;;;;;;5054336;28;20640;-77
2021/09/13 09:48:44;;;;;;;13.93;8.60;;;24.10;99.90;;;;;;5052323;28;20652;-77
2021/09/13 09:51:35;;;;;;;17.33;8.40;;;25.40;99.90;;;;;;5048929;28;20178;-76
2021/09/13 09:54:09;;;;;;;14.23;6.85;;;27.00;99.90;;;;;;5042144;28;20604;-77
2021/09/13 09:56:35;;;;;;;16.02;7.32;;;27.60;99.90;;;;;;5051657;28;20545;-77
2021/09/13 09:59:04;;;;;;;13.70;6.80;;;28.70;99.90;;;;;;5046754;28;20177;-78
2021/09/13 10:01:35;;;;;;;11.50;5.80;;;29.90;99.90;;;;;;5047627;28;20622;-78
2021/09/13 10:04:27;;;;;;;12.68;6.07;;;29.60;99.90;;;;;;5052063;28;20662;-78
2021/09/13 10:07:00;;;;;;;11.98;6.07;;;28.50;99.90;;;;;;5052074;28;20279;-78
2021/09/13 10:09:31;;;;;;;11.75;5.95;;;28.20;99.90;;;;;;5053105;28;20618;-77
2021/09/13 10:12:00;;;;;;;12.10;5.90;;;27.60;99.90;;;;;;5055071;28;20182;-78
2021/09/13 10:14:29;;;;;;;13.20;7.25;;;27.20;99.90;;;;;;5051135;28;20176;-77
2021/09/13 10:16:55;;;;;;;10.77;5.97;;;27.00;99.90;;;;;;5052965;28;20180;-77
2021/09/13 10:19:23;;;;;;;12.40;6.50;;;26.50;99.90;;;;;;5047999;28;20222;-76
2021/09/13 10:21:50;;;;;;;12.05;6.13;;;26.80;99.90;;;;;;5050830;28;20192;-77
2021/09/13 10:24:31;;;;;;;12.30;6.20;;;26.50;99.90;;;;;;5049924;28;20192;-76
2021/09/13 10:27:00;;;;;;;13.48;7.05;;;26.50;99.90;;;;;;5050174;28;20671;-78
2021/09/13 10:29:27;;;;;;;14.65;7.03;;;26.10;99.90;;;;;;5052778;28;20641;-77
2021/09/13 10:32:05;;;;;;;16.53;6.83;;;25.60;99.90;;;;;;5049516;28;20637;-77
2021/09/13 10:34:37;;;;;;;11.93;7.50;;;25.60;99.90;;;;;;5048825;28;20181;-77
2021/09/13 10:37:10;;;;;;;12.07;6.73;;;25.20;99.90;;;;;;5050554;28;20184;-77
2021/09/13 10:39:54;;;;;;;12.33;6.60;;;25.10;99.90;;;;;;5034076;28;20717;-77
2021/09/13 10:42:31;;;;;;;15.70;8.30;;;25.10;99.90;;;;;;5048808;28;20233;-77
2021/09/13 10:45:09;;;;;;;16.77;9.50;;;24.80;99.90;;;;;;5066136;28;20681;-77
2021/09/13 10:47:37;;;;;;;12.93;8.70;;;24.60;99.90;;;;;;5049571;28;20184;-77
2021/09/13 10:50:24;;;;;;;16.63;9.10;;;24.50;99.90;;;;;;5048944;28;20601;-77
2021/09/13 10:52:52;;;;;;;19.27;9.83;;;24.30;99.90;;;;;;5049589;28;20247;-77
2021/09/13 10:55:22;;;;;;;16.60;9.13;;;24.30;99.90;;;;;;5042334;28;20191;-77
2021/09/13 10:57:54;;;;;;;14.17;8.23;;;24.20;99.90;;;;;;5049300;28;20192;-77
2021/09/13 11:00:38;;;;;;;14.77;8.87;;;24.30;99.90;;;;;;5043720;28;20239;-77
2021/09/13 11:03:22;;;;;;;17.57;10.57;;;24.30;99.90;;;;;;5065860;28;20253;-76
2021/09/13 11:06:13;;;;;;;16.77;8.87;;;24.30;99.90;;;;;;5050473;28;20234;-77
2021/09/13 11:08:45;;;;;;;15.47;9.40;;;24.30;99.90;;;;;;5063379;28;20603;-77
2021/09/13 11:11:19;;;;;;;15.77;9.23;;;24.10;99.90;;;;;;5052861;28;20180;-77
2021/09/13 11:13:54;;;;;;;17.57;10.77;;;24.00;99.90;;;;;;5046402;28;20183;-77
2021/09/13 11:16:19;;;;;;;17.87;10.83;;;23.70;99.90;;;;;;5035338;28;20168;-77
2021/09/13 11:18:47;;;;;;;15.73;10.23;;;23.50;99.90;;;;;;5052367;28;20973;-77
2021/09/13 11:21:22;;;;;;;18.23;10.80;;;23.50;99.90;;;;;;5044763;28;20189;-77
2021/09/13 11:23:52;;;;;;;22.63;12.30;;;23.40;99.90;;;;;;5048355;28;20182;-77
2021/09/13 11:26:30;;;;;;;19.43;12.30;;;23.50;99.90;;;;;;5050536;28;20231;-77
2021/09/13 11:28:58;;;;;;;23.50;12.30;;;23.50;99.90;;;;;;5052499;28;20543;-76
2021/09/13 11:31:38;;;;;;;16.63;11.30;;;23.40;99.90;;;;;;5055039;28;20195;-76
2021/09/13 11:34:27;;;;;;;19.53;11.77;;;23.50;99.90;;;;;;5045108;28;20557;-76
2021/09/13 11:36:58;;;;;;;21.60;12.50;;;23.60;99.90;;;;;;5061675;28;20253;-77
2021/09/13 11:39:27;;;;;;;19.03;13.10;;;23.70;99.90;;;;;;5050681;28;20580;-77
2021/09/13 11:41:58;;;;;;;20.03;11.77;;;23.70;99.90;;;;;;5043732;28;20194;-77
2021/09/13 11:44:25;;;;;;;17.50;11.87;;;23.80;99.90;;;;;;5050014;28;20674;-76
2021/09/13 11:46:55;;;;;;;17.67;12.80;;;23.90;99.90;;;;;;5039892;28;20206;-76
2021/09/13 11:49:30;;;;;;;19.60;12.70;;;24.10;99.90;;;;;;5047436;28;20240;-76
2021/09/13 11:52:04;;;;;;;19.00;12.07;;;24.10;99.90;;;;;;5048831;28;20188;-76
2021/09/13 11:54:32;;;;;;;18.83;12.63;;;24.00;99.90;;;;;;5047240;28;20204;-76
2021/09/13 11:56:59;;;;;;;22.27;14.20;;;24.10;99.90;;;;;;5053170;28;20250;-76
2021/09/13 11:59:26;;;;;;;21.20;12.73;;;23.90;99.90;;;;;;5048658;28;20219;-77
2021/09/13 12:01:56;;;;;;;17.10;12.37;;;23.70;99.90;;;;;;5048208;28;20185;-77
2021/09/13 12:04:27;;;;;;;21.47;14.03;;;23.80;99.90;;;;;;5052260;28;20185;-77
2021/09/13 12:07:07;;;;;;;21.60;13.87;;;23.70;99.90;;;;;;5053372;28;20203;-76
2021/09/13 12:09:59;;;;;;;20.00;13.53;;;23.90;99.90;;;;;;5052646;28;20554;-77
2021/09/13 12:12:36;;;;;;;21.90;13.03;;;23.90;99.90;;;;;;5064627;28;20203;-77
2021/09/13 12:15:08;;;;;;;19.90;13.37;;;23.70;99.90;;;;;;5054214;28;20191;-76
2021/09/13 12:17:39;;;;;;;21.00;13.47;;;23.80;99.90;;;;;;5055045;28;20234;-76
2021/09/13 12:20:22;;;;;;;21.87;13.17;;;23.80;99.90;;;;;;5064318;28;20181;-75
2021/09/13 12:23:09;;;;;;;18.83;12.50;;;23.90;99.90;;;;;;5054864;28;20528;-77
2021/09/13 12:25:44;;;;;;;21.50;12.83;;;24.30;99.90;;;;;;5057062;28;20189;-77
2021/09/13 12:28:11;;;;;;;17.10;11.00;;;24.70;99.90;;;;;;5045878;28;20209;-77
2021/09/13 12:30:39;;;;;;;19.47;12.43;;;24.70;99.90;;;;;;5054375;28;20287;-77
2021/09/13 12:33:09;;;;;;;16.87;11.47;;;24.40;99.90;;;;;;5062315;28;20191;-77
2021/09/13 12:35:42;;;;;;;16.70;11.30;;;24.60;99.90;;;;;;5051106;28;20238;-77
2021/09/13 12:38:11;;;;;;;18.00;11.77;;;24.90;99.90;;;;;;5057205;28;20185;-77
2021/09/13 12:41:09;;;;;;;18.73;11.83;;;24.80;99.90;;;;;;5049242;28;20192;-77
2021/09/13 12:43:44;;;;;;;20.33;12.00;;;24.60;99.90;;;;;;5070491;28;20224;-76
2021/09/13 12:46:14;;;;;;;18.53;11.07;;;24.50;99.90;;;;;;5050506;28;20212;-76
2021/09/13 12:48:42;;;;;;;16.40;11.13;;;24.30;99.90;;;;;;5051548;28;20310;-76
2021/09/13 12:51:13;;;;;;;17.60;10.97;;;24.20;99.90;;;;;;5044200;28;20192;-76
2021/09/13 12:53:39;;;;;;;17.23;10.50;;;24.40;99.90;;;;;;5048218;28;20177;-76